West Islip, New York
Current Conditions -  °F | °C
As of 4:53 PM on Monday 26 Jan 2015 (Local Time) from KFRG Reporting Station
Light Snow Light Snow  
Wind Chill: 14°   Ceiling: 1300
Heat Index: 27°   Visibility: 0.75mi
Dew Point: 23°   Wind: 20mph
Humidity: 85%   Direction: 40°NE
Pressure: 29.82"   Gusts: 30mph
Location:  40.71°N, 73.29°W
Report Text: KFRG 262153Z 04017G26KT 3/4SM -SN BR FEW009 OVC013 M03/M05 A2982 RMK AO2 PK WND 06027/2056 PRESFR SLP098 P0002 T10281050
Loading
Personal Weather Stations






























Interactive Weather Map New forecast layout! Learn more

10-Day Weather Forecast

Advertisements
Track Severe Weather on mobile